Terminal Aerodrome Forecast
Issued by NWS Sterling, VA

Current Version | Previous Version | Graphics & Text | Print | Product List | Glossary On
Versions: 1 2 3 4 5 6 7 8 9 10 11 12 13 14 15 16 17 18 19 20 21 22 23 24 25
000
FTUS41 KLWX 011700 RRA
TAFIAD
TAF
KIAD 011741Z 0118/0224 VRB03KT P6SM BKN025
     FM012000 VRB03KT P6SM BKN045
     FM012300 00000KT P6SM SCT050
     FM020700 00000KT 5SM BR SCT010 BKN050
     FM020900 00000KT 3SM BR SCT010 BKN025
     FM021500 00000KT P6SM BKN030
     FM021800 VRB03KT P6SM BKN040=

USA.gov is the U.S. government's official web portal to all federal, state and local government web resources and services.